Time;durP1;ratioP1;P1;durP2;ratioP2;P2;SDS_P1;SDS_P2;PMS_P1;PMS_P2;Temp;Humidity;BMP_temperature;BMP_pressure;BME280_temperature;BME280_humidity;BME280_pressure;Samples;Min_cycle;Max_cycle;Signal;HPM_P1;HPM_P2
2021/07/21 00:00:52;;;;;;;15.07;7.82;;;;;;;21.40;62.45;100622.91;5037814;28;20129;-62
2021/07/21 00:03:20;;;;;;;12.02;7.10;;;;;;;21.40;62.36;100626.59;5048260;28;20056;-60
2021/07/21 00:05:48;;;;;;;13.65;6.63;;;;;;;21.36;62.18;100639.81;5044874;28;20045;-62
2021/07/21 00:08:15;;;;;;;10.50;6.15;;;;;;;21.31;62.37;100634.34;5041030;28;20083;-59
2021/07/21 00:10:45;;;;;;;16.55;7.18;;;;;;;21.26;62.42;100632.56;5035537;28;20069;-59
2021/07/21 00:13:28;;;;;;;12.27;7.13;;;;;;;21.29;62.10;100636.69;5030705;28;20124;-59
2021/07/21 00:16:07;;;;;;;11.70;7.10;;;;;;;21.22;62.16;100611.72;5030472;28;20049;-59
2021/07/21 00:18:47;;;;;;;17.05;8.00;;;;;;;21.27;62.31;100616.38;5058980;28;20077;-59
2021/07/21 00:21:17;;;;;;;21.40;7.93;;;;;;;21.40;62.04;100617.22;5062215;28;20084;-59
2021/07/21 00:23:44;;;;;;;15.70;8.15;;;;;;;21.32;62.16;100606.78;5047121;28;20126;-59
2021/07/21 00:26:11;;;;;;;13.38;6.90;;;;;;;21.35;61.92;100615.44;5045701;28;20461;-59
2021/07/21 00:28:41;;;;;;;13.02;7.47;;;;;;;21.36;62.21;100617.09;5044406;28;20119;-58
2021/07/21 00:31:15;;;;;;;14.60;7.47;;;;;;;21.27;61.81;100597.31;5035313;28;20041;-58
2021/07/21 00:33:45;;;;;;;15.65;7.13;;;;;;;20.94;61.91;100548.25;5044149;28;20090;-59
2021/07/21 00:36:11;;;;;;;13.73;7.57;;;;;;;21.13;62.30;100578.91;5032281;28;20136;-60
2021/07/21 00:38:38;;;;;;;13.27;7.45;;;;;;;21.22;62.17;100593.84;5041533;28;20084;-59
2021/07/21 00:41:05;;;;;;;13.95;6.57;;;;;;;21.31;62.17;100594.59;5037095;28;20087;-58
2021/07/21 00:43:32;;;;;;;12.35;7.15;;;;;;;21.25;62.13;100584.63;5038997;28;20128;-59
2021/07/21 00:45:59;;;;;;;12.98;7.32;;;;;;;21.32;61.90;100599.06;5035622;28;20465;-59
2021/07/21 00:48:26;;;;;;;15.15;7.05;;;;;;;21.29;61.94;100603.44;5033696;28;20041;-60
2021/07/21 00:50:54;;;;;;;10.43;6.75;;;;;;;21.23;61.93;100587.84;5034003;28;20041;-61
2021/07/21 00:53:22;;;;;;;14.52;6.50;;;;;;;21.18;62.01;100587.22;5046192;28;20124;-59
2021/07/21 00:55:51;;;;;;;10.82;6.28;;;;;;;21.13;62.12;100601.63;5034970;28;20187;-62
2021/07/21 00:58:18;;;;;;;10.77;6.30;;;;;;;21.09;62.11;100597.84;5034110;28;20088;-62
2021/07/21 01:00:45;;;;;;;11.07;6.47;;;;;;;21.04;62.19;100599.72;5033942;28;20075;-62
2021/07/21 01:03:12;;;;;;;14.48;6.43;;;;;;;21.05;62.53;100600.56;5045510;28;20061;-62
2021/07/21 01:05:43;;;;;;;12.48;7.20;;;;;;;21.00;62.36;100580.91;5045293;28;20045;-61
2021/07/21 01:08:12;;;;;;;18.90;6.30;;;;;;;21.02;62.26;100590.72;5041552;28;20128;-61
2021/07/21 01:10:58;;;;;;;15.80;6.82;;;;;;;20.92;62.55;100574.16;5037474;28;20393;-60
2021/07/21 01:13:31;;;;;;;17.60;7.07;;;;;;;20.99;62.61;100599.97;5047111;28;20555;-59
2021/07/21 01:16:05;;;;;;;11.02;6.80;;;;;;;20.88;62.36;100567.50;5042588;28;20037;-60
2021/07/21 01:18:51;;;;;;;14.07;6.43;;;;;;;20.83;62.28;100571.38;5047049;28;20582;-60
2021/07/21 01:22:02;;;;;;;14.15;8.00;;;;;;;20.88;62.49;100584.53;5038577;28;20080;-61
2021/07/21 01:24:38;;;;;;;14.15;6.22;;;;;;;20.84;62.33;100577.91;5034188;28;20560;-60
2021/07/21 01:27:26;;;;;;;19.02;7.65;;;;;;;20.89;62.54;100586.22;5045740;28;20048;-59
2021/07/21 01:30:01;;;;;;;13.88;6.45;;;;;;;20.88;62.51;100587.38;5043289;28;20687;-60
2021/07/21 01:32:30;;;;;;;11.95;6.18;;;;;;;20.88;62.65;100584.53;5046092;28;20051;-60
2021/07/21 01:35:05;;;;;;;16.30;7.47;;;;;;;20.81;62.37;100579.41;5041793;28;20180;-64
2021/07/21 01:37:35;;;;;;;17.23;7.68;;;;;;;20.74;62.50;100556.44;5041186;28;20140;-66
2021/07/21 01:40:05;;;;;;;14.15;6.95;;;;;;;20.88;62.54;100572.34;5031556;28;20088;-66
2021/07/21 01:42:34;;;;;;;12.55;6.72;;;;;;;20.91;62.66;100568.81;5038567;28;20148;-65
2021/07/21 01:45:03;;;;;;;14.53;7.10;;;;;;;20.92;62.40;100559.97;5036254;28;20124;-66
2021/07/21 01:47:33;;;;;;;16.48;7.25;;;;;;;21.01;62.33;100572.03;5031671;28;20128;-66
2021/07/21 01:50:02;;;;;;;14.98;7.05;;;;;;;20.93;62.15;100558.78;5040579;28;20124;-64
2021/07/21 01:52:31;;;;;;;17.57;7.00;;;;;;;20.99;62.77;100568.72;5033113;28;20084;-64
2021/07/21 01:55:01;;;;;;;12.82;7.10;;;;;;;20.78;62.46;100514.00;5046481;28;20085;-65
2021/07/21 01:57:32;;;;;;;18.65;9.07;;;;;;;21.04;62.44;100548.63;5037670;28;20404;-64
2021/07/21 02:00:01;;;;;;;19.10;8.27;;;;;;;21.04;62.25;100544.97;5046493;28;20118;-66
2021/07/21 02:02:29;;;;;;;12.73;6.22;;;;;;;20.97;62.46;100539.84;5031155;28;20145;-68
2021/07/21 02:04:58;;;;;;;11.98;6.45;;;;;;;21.08;62.45;100559.28;5038544;28;20160;-71
2021/07/21 02:07:26;;;;;;;12.40;7.80;;;;;;;21.03;62.23;100541.28;5043111;28;20120;-68
2021/07/21 02:09:53;;;;;;;19.30;6.47;;;;;;;21.03;62.64;100546.16;5040184;28;20096;-63
2021/07/21 02:12:20;;;;;;;12.93;5.97;;;;;;;21.02;62.57;100544.47;5042107;28;20079;-66
2021/07/21 02:14:48;;;;;;;18.30;7.40;;;;;;;21.10;62.38;100545.56;5045042;28;20084;-67
2021/07/21 02:17:16;;;;;;;13.52;7.43;;;;;;;21.09;62.39;100555.25;5039740;28;20044;-63
2021/07/21 02:19:45;;;;;;;13.27;6.70;;;;;;;21.09;62.41;100550.38;5034440;28;20111;-66
2021/07/21 02:22:18;;;;;;;15.37;7.43;;;;;;;21.09;62.61;100560.94;5034815;28;20132;-64
2021/07/21 02:24:46;;;;;;;13.05;6.75;;;;;;;20.99;62.42;100536.66;5046597;28;20055;-64
2021/07/21 02:27:14;;;;;;;14.13;6.82;;;;;;;21.03;62.46;100554.66;5041277;28;20124;-63
2021/07/21 02:29:42;;;;;;;15.00;7.05;;;;;;;21.06;62.41;100571.00;5048556;28;20148;-66
2021/07/21 02:32:19;;;;;;;12.88;6.40;;;;;;;20.92;62.35;100553.44;5039710;28;20137;-65
2021/07/21 02:34:46;;;;;;;11.60;6.43;;;;;;;21.01;62.55;100574.03;5038838;28;20986;-63
2021/07/21 02:37:16;;;;;;;16.52;6.95;;;;;;;20.96;62.42;100563.75;5047838;28;20041;-64
2021/07/21 02:39:44;;;;;;;12.63;6.72;;;;;;;20.91;62.61;100558.28;5048725;28;20060;-63
2021/07/21 02:42:14;;;;;;;13.90;7.22;;;;;;;20.86;62.53;100555.69;5038859;28;20073;-63
2021/07/21 02:44:44;;;;;;;16.48;6.85;;;;;;;20.91;62.78;100558.28;5036302;28;20124;-64
2021/07/21 02:47:11;;;;;;;20.50;7.20;;;;;;;20.72;62.64;100535.31;5043204;28;20121;-64
2021/07/21 02:49:39;;;;;;;11.98;6.85;;;;;;;20.90;62.70;100559.47;5033582;28;20163;-63
2021/07/21 02:52:15;;;;;;;13.52;6.47;;;;;;;20.87;62.66;100557.31;5033462;28;20133;-67
2021/07/21 02:54:48;;;;;;;14.02;6.95;;;;;;;20.95;62.77;100562.06;5036763;28;20045;-65
2021/07/21 02:57:28;;;;;;;13.40;6.70;;;;;;;20.99;62.25;100557.38;5044701;28;20040;-66
2021/07/21 03:00:01;;;;;;;15.07;6.95;;;;;;;21.01;62.13;100562.69;5039860;28;20060;-67
2021/07/21 03:02:30;;;;;;;16.38;7.78;;;;;;;20.87;62.54;100545.97;5049649;28;20140;-68
2021/07/21 03:04:59;;;;;;;12.10;7.55;;;;;;;20.95;62.49;100552.72;5048120;28;20410;-67
2021/07/21 03:07:27;;;;;;;11.65;6.05;;;;;;;21.03;62.49;100558.31;5046289;28;20080;-67
2021/07/21 03:09:55;;;;;;;12.95;6.68;;;;;;;21.05;62.52;100553.09;5041672;28;20101;-64
2021/07/21 03:12:24;;;;;;;14.77;6.95;;;;;;;21.05;62.35;100552.28;5052219;28;20047;-62
2021/07/21 03:14:54;;;;;;;12.88;6.70;;;;;;;21.00;62.39;100544.84;5044436;28;20124;-64
2021/07/21 03:17:22;;;;;;;;;;;;;;;20.96;62.32;100546.72;5038568;28;20529;-61
2021/07/21 03:19:52;;;;;;;10.43;6.60;;;;;;;20.99;62.36;100546.03;5033712;28;19920;-60
2021/07/21 03:22:22;;;;;;;16.70;6.82;;;;;;;20.96;62.38;100540.22;5051492;28;20088;-62
2021/07/21 03:24:50;;;;;;;14.25;6.80;;;;;;;20.94;62.38;100519.84;5045917;28;20045;-61
2021/07/21 03:27:19;;;;;;;14.73;7.07;;;;;;;20.99;62.41;100534.66;5034048;28;20069;-63
2021/07/21 03:29:52;;;;;;;17.92;7.97;;;;;;;20.91;62.38;100532.72;5045624;28;20077;-62
2021/07/21 03:32:21;;;;;;;13.88;7.00;;;;;;;21.01;62.49;100555.00;5038824;28;20132;-62
2021/07/21 03:34:49;;;;;;;15.20;6.77;;;;;;;20.97;62.37;100542.69;5032642;28;20084;-61
2021/07/21 03:37:18;;;;;;;13.38;7.75;;;;;;;20.97;62.47;100553.22;5041435;28;20511;-61
2021/07/21 03:39:52;;;;;;;12.68;7.13;;;;;;;20.94;62.51;100546.22;5045298;28;20462;-60
2021/07/21 03:42:19;;;;;;;12.57;6.78;;;;;;;20.92;62.72;100551.44;5039882;28;20044;-60
2021/07/21 03:44:46;;;;;;;12.85;7.43;;;;;;;20.87;62.53;100545.97;5042881;28;20131;-60
2021/07/21 03:47:18;;;;;;;12.18;7.07;;;;;;;20.88;62.65;100549.63;5048588;28;20072;-60
2021/07/21 03:49:46;;;;;;;14.15;6.55;;;;;;;20.92;62.57;100554.28;5043080;28;21356;-59
2021/07/21 03:52:14;;;;;;;14.60;7.05;;;;;;;20.93;62.63;100555.94;5036648;28;20140;-59
2021/07/21 03:54:43;;;;;;;13.33;6.13;;;;;;;20.91;62.59;100558.28;5041972;28;20057;-59
2021/07/21 03:57:19;;;;;;;13.65;6.15;;;;;;;20.89;62.59;100554.97;5044243;28;20655;-59
2021/07/21 03:59:46;;;;;;;19.35;7.70;;;;;;;20.87;62.54;100554.50;5048006;28;20048;-60
2021/07/21 04:02:16;;;;;;;12.30;7.55;;;;;;;20.83;62.58;100547.88;5032744;28;20119;-60
2021/07/21 04:04:46;;;;;;;11.32;6.80;;;;;;;20.83;62.55;100553.53;5036675;28;20124;-60
2021/07/21 04:07:15;;;;;;;15.57;7.18;;;;;;;20.72;62.50;100547.47;5036903;28;20128;-58
2021/07/21 04:09:45;;;;;;;14.60;6.82;;;;;;;20.70;62.74;100543.31;5036000;28;20129;-59
2021/07/21 04:12:14;;;;;;;11.57;6.57;;;;;;;20.77;62.81;100549.25;5038568;28;20041;-61
2021/07/21 04:14:49;;;;;;;16.67;7.03;;;;;;;20.77;62.56;100561.44;5048426;28;20051;-61
2021/07/21 04:17:17;;;;;;;13.13;7.28;;;;;;;20.83;62.82;100559.22;5039203;28;20069;-61
2021/07/21 04:19:47;;;;;;;13.68;6.40;;;;;;;20.84;62.71;100566.53;5061780;28;20136;-61
2021/07/21 04:22:14;;;;;;;17.23;7.85;;;;;;;20.85;62.67;100564.53;5041592;28;20083;-62
2021/07/21 04:24:45;;;;;;;19.25;8.00;;;;;;;20.75;62.56;100552.44;5039517;28;20049;-64
2021/07/21 04:27:13;;;;;;;16.98;7.40;;;;;;;20.90;62.55;100567.16;5049008;28;20059;-65
2021/07/21 04:29:42;;;;;;;13.20;7.72;;;;;;;20.81;62.63;100561.56;5043938;28;20136;-63
2021/07/21 04:32:10;;;;;;;16.27;7.25;;;;;;;20.81;62.83;100559.53;5049791;28;20068;-64
2021/07/21 04:34:38;;;;;;;17.27;6.80;;;;;;;20.85;62.73;100575.88;5037036;28;20076;-60
2021/07/21 04:37:06;;;;;;;19.00;7.28;;;;;;;20.88;62.38;100567.50;5040060;28;20128;-59
2021/07/21 04:39:33;;;;;;;13.25;6.95;;;;;;;20.92;62.55;100571.31;5038604;28;20057;-61
2021/07/21 04:42:00;;;;;;;14.88;7.78;;;;;;;20.85;62.55;100565.34;5035724;28;20132;-63
2021/07/21 04:44:27;;;;;;;17.83;8.77;;;;;;;20.93;62.33;100575.81;5046904;28;20140;-63
2021/07/21 04:46:57;;;;;;;16.20;7.80;;;;;;;20.87;62.45;100560.16;5045109;28;20555;-61
2021/07/21 04:49:25;;;;;;;14.65;7.53;;;;;;;20.91;62.49;100566.78;5048624;28;20071;-60
2021/07/21 04:51:56;;;;;;;21.33;7.95;;;;;;;20.87;62.54;100568.69;5032212;28;20487;-60
2021/07/21 04:54:23;;;;;;;18.13;7.78;;;;;;;20.79;62.45;100572.44;5037978;28;20080;-62
2021/07/21 04:56:49;;;;;;;12.95;6.88;;;;;;;20.78;62.71;100574.44;5036362;28;20235;-60
2021/07/21 04:59:16;;;;;;;13.98;6.90;;;;;;;20.63;62.45;100543.88;5033977;28;20133;-62
2021/07/21 05:01:43;;;;;;;13.73;7.40;;;;;;;20.86;62.59;100575.53;5037666;28;20045;-58
2021/07/21 05:04:11;;;;;;;15.68;7.22;;;;;;;20.83;62.53;100581.91;5042242;28;20125;-57
2021/07/21 05:06:38;;;;;;;15.20;6.65;;;;;;;20.84;62.56;100586.41;5038612;28;20118;-56
2021/07/21 05:09:06;;;;;;;16.70;7.90;;;;;;;20.82;62.60;100583.94;5043169;28;20080;-56
2021/07/21 05:11:33;;;;;;;18.52;7.50;;;;;;;20.77;62.61;100584.13;5044873;28;20044;-56
2021/07/21 05:14:00;;;;;;;13.82;7.32;;;;;;;20.80;62.77;100571.25;5062966;28;20127;-57
2021/07/21 05:16:27;;;;;;;18.63;7.95;;;;;;;20.64;62.50;100542.69;5039602;28;20156;-58
2021/07/21 05:18:54;;;;;;;15.52;7.28;;;;;;;20.86;62.51;100580.41;5051088;28;20115;-57
2021/07/21 05:21:19;;;;;;;17.80;7.80;;;;;;;20.81;62.52;100589.94;5038654;28;20454;-60
2021/07/21 05:23:46;;;;;;;17.50;7.07;;;;;;;20.80;62.77;100599.66;5048395;28;20049;-60
2021/07/21 05:26:13;;;;;;;14.93;7.32;;;;;;;20.62;62.68;100569.78;5037122;28;20121;-59
2021/07/21 05:28:40;;;;;;;17.90;7.60;;;;;;;20.70;62.62;100588.72;5038506;28;20176;-59
2021/07/21 05:31:08;;;;;;;14.23;7.20;;;;;;;20.72;62.42;100598.56;5037965;28;20135;-59
2021/07/21 05:33:36;;;;;;;18.25;7.05;;;;;;;20.57;62.45;100585.81;5037809;28;20057;-60
2021/07/21 05:36:04;;;;;;;13.52;7.15;;;;;;;20.61;62.50;100579.44;5044172;28;20124;-60
2021/07/21 05:38:32;;;;;;;14.20;7.70;;;;;;;20.79;62.64;100598.81;5046168;28;20148;-59
2021/07/21 05:40:59;;;;;;;12.05;6.82;;;;;;;20.80;62.47;100596.81;5035072;28;20053;-61
2021/07/21 05:43:29;;;;;;;15.70;6.97;;;;;;;20.75;62.43;100602.69;5049574;28;20128;-57
2021/07/21 05:45:56;;;;;;;13.93;5.90;;;;;;;20.69;62.79;100585.06;5044105;28;20115;-58
2021/07/21 05:48:23;;;;;;;11.57;5.93;;;;;;;20.76;62.64;100593.00;5040068;28;20044;-58
2021/07/21 05:50:50;;;;;;;11.60;6.63;;;;;;;20.85;62.44;100607.09;5041624;28;20453;-58
2021/07/21 05:53:17;;;;;;;13.38;6.40;;;;;;;20.82;62.24;100608.66;5051631;28;20519;-66
2021/07/21 05:55:44;;;;;;;15.50;7.32;;;;;;;20.81;62.47;100606.97;5032766;28;20063;-66
2021/07/21 05:58:11;;;;;;;12.95;6.68;;;;;;;20.86;62.36;100609.59;5036402;28;20133;-66
2021/07/21 06:00:38;;;;;;;17.67;7.40;;;;;;;20.81;62.35;100598.44;5045632;28;20087;-66
2021/07/21 06:03:05;;;;;;;12.38;6.88;;;;;;;20.88;62.39;100612.91;5045261;28;20489;-65
2021/07/21 06:05:32;;;;;;;16.38;7.53;;;;;;;20.83;62.58;100621.66;5034571;28;20068;-64
2021/07/21 06:07:59;;;;;;;13.98;6.60;;;;;;;20.72;62.42;100615.59;5034775;28;20045;-66
2021/07/21 06:10:28;;;;;;;16.35;7.45;;;;;;;20.73;62.71;100614.41;5035085;28;20111;-65
2021/07/21 06:12:55;;;;;;;17.08;7.63;;;;;;;20.66;62.93;100613.31;5047156;28;20175;-64
2021/07/21 06:15:26;;;;;;;16.25;7.75;;;;;;;20.78;62.89;100630.38;5044254;28;20145;-65
2021/07/21 06:17:54;;;;;;;15.98;8.00;;;;;;;20.95;62.74;100624.53;5036783;28;20048;-67
2021/07/21 06:20:21;;;;;;;17.60;7.65;;;;;;;21.03;62.41;100626.47;5036466;28;20136;-69
2021/07/21 06:22:48;;;;;;;14.40;6.25;;;;;;;21.01;62.61;100622.31;5041042;28;20599;-61
2021/07/21 06:25:15;;;;;;;15.63;7.60;;;;;;;20.80;62.71;100594.78;5040640;28;20076;-60
2021/07/21 06:27:42;;;;;;;14.13;6.90;;;;;;;20.93;62.69;100621.22;5037349;28;20087;-61
2021/07/21 06:30:09;;;;;;;16.20;7.68;;;;;;;20.87;62.77;100602.75;5035282;28;20076;-60
2021/07/21 06:32:38;;;;;;;12.35;6.75;;;;;;;21.00;62.95;100610.13;5039532;28;20100;-61
2021/07/21 06:35:06;;;;;;;14.30;7.28;;;;;;;20.91;62.97;100602.88;5044965;28;20069;-61
2021/07/21 06:37:33;;;;;;;18.17;9.02;;;;;;;20.98;62.60;100614.50;5043258;28;20557;-60
2021/07/21 06:40:01;;;;;;;19.13;8.60;;;;;;;20.99;63.07;100622.66;5044154;28;20107;-62
2021/07/21 06:42:27;;;;;;;21.73;7.90;;;;;;;21.08;63.03;100625.41;5047377;28;20805;-61
2021/07/21 06:44:54;;;;;;;19.95;9.68;;;;;;;21.09;62.88;100629.91;5037490;28;20179;-61
2021/07/21 06:47:21;;;;;;;16.42;8.07;;;;;;;21.00;63.13;100624.31;5048269;28;20079;-61
2021/07/21 06:49:49;;;;;;;14.65;8.27;;;;;;;20.99;63.04;100619.84;5040607;28;20052;-60
2021/07/21 06:52:21;;;;;;;18.00;7.63;;;;;;;20.97;63.06;100624.19;5046771;28;20555;-61
2021/07/21 06:54:48;;;;;;;21.35;9.27;;;;;;;20.91;63.33;100640.59;5033242;28;20049;-61
2021/07/21 06:57:15;;;;;;;18.55;8.85;;;;;;;20.82;63.46;100637.84;5041838;28;20144;-61
2021/07/21 06:59:42;;;;;;;17.40;8.55;;;;;;;20.71;63.40;100635.78;5041421;28;20080;-61
2021/07/21 07:02:09;;;;;;;19.75;8.68;;;;;;;20.81;63.76;100647.53;5041583;28;20477;-61
2021/07/21 07:04:37;;;;;;;13.60;8.07;;;;;;;20.58;63.70;100613.03;5028828;28;20496;-62
2021/07/21 07:07:04;;;;;;;19.17;8.48;;;;;;;20.68;63.69;100613.75;5038413;28;20045;-62
2021/07/21 07:09:31;;;;;;;14.13;7.72;;;;;;;20.92;63.53;100650.81;5052319;28;20072;-61
2021/07/21 07:11:58;;;;;;;15.10;7.40;;;;;;;20.91;63.92;100660.47;5041003;28;20140;-61
2021/07/21 07:14:25;;;;;;;16.73;8.32;;;;;;;20.94;63.88;100661.78;5031299;28;20060;-62
2021/07/21 07:16:52;;;;;;;19.48;8.85;;;;;;;20.91;63.82;100651.97;5033526;28;20128;-61
2021/07/21 07:19:19;;;;;;;16.23;9.25;;;;;;;20.95;63.88;100655.75;5040782;28;20080;-61
2021/07/21 07:21:46;;;;;;;14.73;8.35;;;;;;;20.99;63.93;100642.53;5033488;28;20493;-61
2021/07/21 07:24:13;;;;;;;14.52;7.82;;;;;;;21.13;63.81;100644.22;5036134;28;20047;-61
2021/07/21 07:26:40;;;;;;;14.85;8.48;;;;;;;21.10;63.63;100648.63;5037475;28;20508;-61
2021/07/21 07:29:07;;;;;;;20.45;7.93;;;;;;;21.06;63.68;100645.66;5036544;28;20079;-63
2021/07/21 07:31:38;;;;;;;15.70;8.60;;;;;;;20.99;63.81;100642.53;5031423;28;20059;-63
2021/07/21 07:34:05;;;;;;;17.75;8.52;;;;;;;20.96;63.60;100648.09;5047229;28;20048;-63
2021/07/21 07:36:32;;;;;;;18.00;9.20;;;;;;;20.91;63.99;100646.28;5046993;28;20476;-63
2021/07/21 07:38:59;;;;;;;18.88;8.77;;;;;;;20.97;64.04;100644.88;5041184;28;20132;-63
2021/07/21 07:41:26;;;;;;;15.27;7.63;;;;;;;20.94;64.14;100644.75;5032491;28;20137;-63
2021/07/21 07:43:53;;;;;;;15.82;8.35;;;;;;;20.96;64.14;100642.41;5048665;28;20552;-63
2021/07/21 07:46:24;;;;;;;22.98;9.02;;;;;;;21.04;64.06;100638.66;5043283;28;20135;-63
2021/07/21 07:48:53;;;;;;;19.17;8.07;;;;;;;21.10;64.18;100642.13;5036257;28;20049;-63
2021/07/21 07:51:22;;;;;;;15.10;8.07;;;;;;;21.08;64.15;100635.94;5042252;28;20156;-62
2021/07/21 07:53:49;;;;;;;14.50;7.93;;;;;;;21.16;64.09;100643.53;5033278;28;20136;-63
2021/07/21 07:56:16;;;;;;;16.83;8.20;;;;;;;21.26;63.93;100651.59;5049576;28;20073;-63
2021/07/21 07:58:44;;;;;;;16.17;8.85;;;;;;;21.34;63.83;100652.72;5034623;28;20084;-62
2021/07/21 08:01:10;;;;;;;18.65;8.13;;;;;;;21.27;63.48;100653.28;5031897;28;20049;-63
2021/07/21 08:03:37;;;;;;;13.35;7.03;;;;;;;21.33;63.93;100649.00;5035522;28;20045;-63
2021/07/21 08:06:05;;;;;;;20.05;8.45;;;;;;;21.38;63.86;100665.06;5051335;28;20045;-64
2021/07/21 08:08:31;;;;;;;14.43;8.80;;;;;;;21.39;63.95;100666.72;5047585;28;20059;-63
2021/07/21 08:10:59;;;;;;;13.23;7.07;;;;;;;21.43;63.86;100661.97;5041913;28;20049;-62
2021/07/21 08:13:29;;;;;;;17.80;8.18;;;;;;;21.46;63.58;100664.94;5039602;28;20191;-62
2021/07/21 08:15:56;;;;;;;;;;;;;;;21.45;63.73;100657.63;5035834;28;20049;-62
2021/07/21 08:18:23;;;;;;;16.27;7.40;;;;;;;21.60;63.41;100667.47;5039828;28;20369;-63
2021/07/21 08:20:53;;;;;;;12.55;7.00;;;;;;;21.48;63.13;100644.72;5044327;28;20070;-63
2021/07/21 08:23:20;;;;;;;13.75;6.60;;;;;;;21.54;63.00;100657.53;5039272;28;20072;-63
2021/07/21 08:25:47;;;;;;;11.05;5.80;;;;;;;21.44;62.98;100640.94;5039704;28;20041;-63
2021/07/21 08:28:15;;;;;;;11.25;6.20;;;;;;;21.57;63.09;100658.81;5045529;28;20052;-65
2021/07/21 08:30:43;;;;;;;14.05;5.63;;;;;;;21.56;63.00;100646.63;5037567;28;20306;-63
2021/07/21 08:33:11;;;;;;;11.88;5.68;;;;;;;21.73;62.76;100665.47;5034447;28;20049;-63
2021/07/21 08:35:39;;;;;;;11.30;5.60;;;;;;;21.57;62.89;100633.25;5033451;28;20136;-64
2021/07/21 08:38:09;;;;;;;11.75;6.03;;;;;;;21.75;62.40;100651.75;5039032;28;20076;-64
2021/07/21 08:40:38;;;;;;;9.70;5.63;;;;;;;21.76;62.55;100648.53;5035266;28;20121;-63
2021/07/21 08:43:23;;;;;;;9.68;6.20;;;;;;;21.59;62.53;100631.72;5043306;28;20084;-64
2021/07/21 08:45:52;;;;;;;23.33;6.20;;;;;;;21.66;62.51;100654.69;5042032;28;20686;-64
2021/07/21 08:48:19;;;;;;;;;;;;;;;21.70;62.73;100655.63;5032052;28;20056;-63
2021/07/21 08:50:47;;;;;;;15.23;5.85;;;;;;;21.87;62.43;100654.59;5035032;28;20023;-63
2021/07/21 08:53:16;;;;;;;12.00;6.05;;;;;;;21.69;62.42;100630.41;5038735;28;20073;-63
2021/07/21 08:55:44;;;;;;;10.33;5.67;;;;;;;21.82;62.11;100659.69;5068438;28;20072;-63
2021/07/21 08:58:12;;;;;;;10.10;5.85;;;;;;;21.76;62.47;100656.25;5032691;28;20106;-63
2021/07/21 09:00:39;;;;;;;12.88;5.63;;;;;;;21.81;62.24;100678.72;5032521;28;20274;-64
2021/07/21 09:03:06;;;;;;;10.15;5.63;;;;;;;21.72;62.18;100647.59;5039915;28;20657;-63
2021/07/21 09:05:33;;;;;;;12.52;6.53;;;;;;;21.77;62.06;100643.69;5038880;28;20183;-62
2021/07/21 09:08:00;;;;;;;13.98;6.25;;;;;;;21.92;62.00;100648.69;5037423;28;20045;-63
2021/07/21 09:10:27;;;;;;;15.02;6.00;;;;;;;21.68;61.73;100623.09;5037520;28;20092;-64
2021/07/21 09:12:55;;;;;;;14.15;6.40;;;;;;;21.94;61.82;100654.81;5045664;28;20090;-62
2021/07/21 09:15:23;;;;;;;11.88;5.95;;;;;;;21.97;62.09;100648.44;5042396;28;20125;-62
2021/07/21 09:18:07;;;;;;;10.82;6.40;;;;;;;22.08;61.81;100614.66;5042555;28;20040;-63
2021/07/21 09:20:44;;;;;;;13.95;6.13;;;;;;;22.39;61.42;100648.19;5037779;28;20080;-63
2021/07/21 09:23:11;;;;;;;11.05;6.25;;;;;;;22.44;61.20;100650.78;5046589;28;20138;-64
2021/07/21 09:25:42;;;;;;;12.50;6.93;;;;;;;22.43;61.13;100636.94;5040549;28;20053;-63
2021/07/21 09:28:11;;;;;;;16.27;7.53;;;;;;;22.43;60.86;100649.13;5043117;28;20783;-62
2021/07/21 09:30:47;;;;;;;13.88;6.68;;;;;;;22.33;61.26;100629.72;5039347;28;20193;-63
2021/07/21 09:33:15;;;;;;;15.32;6.30;;;;;;;22.31;60.85;100626.38;5046051;28;20046;-63
2021/07/21 09:35:45;;;;;;;11.35;5.32;;;;;;;22.46;60.66;100651.25;5043144;28;20053;-63
2021/07/21 09:38:16;;;;;;;12.02;5.57;;;;;;;22.43;60.85;100651.97;5044822;28;20132;-63
2021/07/21 09:40:51;;;;;;;13.77;5.32;;;;;;;22.43;60.45;100657.66;5047035;28;20084;-63
2021/07/21 09:43:21;;;;;;;12.85;6.03;;;;;;;22.39;61.02;100647.34;5043133;28;20096;-64
2021/07/21 09:45:48;;;;;;;;;;;;;;;22.35;61.07;100640.72;5036398;28;20453;-63
2021/07/21 09:48:18;;;;;;;12.30;6.18;;;;;;;22.52;60.77;100642.47;5040533;28;20011;-63
2021/07/21 09:50:46;;;;;;;;;;;;;;;22.64;60.97;100648.13;5041852;28;20064;-63
2021/07/21 09:53:14;;;;;;;14.98;6.45;;;;;;;22.79;60.45;100650.22;5037569;28;19925;-63
2021/07/21 09:55:46;;;;;;;10.27;6.25;;;;;;;22.91;60.30;100657.91;5023664;28;20168;-62
2021/07/21 09:58:23;;;;;;;11.75;6.90;;;;;;;23.05;59.66;100660.38;5034224;28;20187;-62
2021/07/21 10:00:50;;;;;;;11.88;6.43;;;;;;;23.25;59.30;100665.03;5042943;28;20057;-62
2021/07/21 10:03:24;;;;;;;16.10;7.25;;;;;;;23.25;58.98;100665.03;5038403;28;20042;-63
2021/07/21 10:05:55;;;;;;;17.10;6.72;;;;;;;23.15;59.02;100671.25;5045349;28;20570;-63
2021/07/21 10:08:28;;;;;;;12.52;6.25;;;;;;;23.16;59.42;100664.34;5050072;28;20459;-62
2021/07/21 10:10:56;;;;;;;13.45;5.80;;;;;;;23.18;59.36;100671.34;5047316;28;20127;-63
2021/07/21 10:13:24;;;;;;;12.10;6.75;;;;;;;23.27;58.88;100671.16;5051313;28;20124;-64
2021/07/21 10:15:54;;;;;;;10.05;6.55;;;;;;;23.41;58.55;100671.56;5043937;28;20045;-64
2021/07/21 10:18:26;;;;;;;10.65;6.07;;;;;;;23.15;58.85;100654.16;5049592;28;20124;-64
2021/07/21 10:20:53;;;;;;;15.50;7.35;;;;;;;23.18;59.06;100670.50;5033785;28;20124;-63
2021/07/21 10:23:20;;;;;;;14.05;7.53;;;;;;;23.16;58.81;100672.88;5045299;28;20104;-64
2021/07/21 10:25:46;;;;;;;15.20;6.80;;;;;;;23.23;58.70;100653.16;5045367;28;20084;-65
2021/07/21 10:28:13;;;;;;;12.32;6.97;;;;;;;23.51;58.14;100675.06;5043968;28;20069;-65
2021/07/21 10:30:41;;;;;;;11.25;6.40;;;;;;;23.67;57.78;100673.06;5051189;28;20147;-65
2021/07/21 10:33:10;;;;;;;17.98;7.20;;;;;;;23.74;57.78;100667.59;5044842;28;20046;-64
2021/07/21 10:35:38;;;;;;;14.33;7.03;;;;;;;23.83;57.40;100665.41;5046349;28;20079;-66
2021/07/21 10:38:05;;;;;;;13.55;6.25;;;;;;;23.88;57.02;100665.09;5043398;28;20298;-63
2021/07/21 10:40:33;;;;;;;16.13;6.82;;;;;;;23.93;56.67;100651.75;5037763;28;20576;-63
2021/07/21 10:43:01;;;;;;;15.20;7.35;;;;;;;24.08;57.10;100670.91;5037152;28;20060;-64
2021/07/21 10:45:35;;;;;;;16.23;7.57;;;;;;;24.09;56.69;100664.81;5048128;28;20132;-63
2021/07/21 10:48:20;;;;;;;12.50;7.28;;;;;;;23.93;56.67;100652.59;5032446;28;20509;-63
2021/07/21 10:51:15;;;;;;;17.50;8.00;;;;;;;23.92;56.93;100667.22;5043897;28;20081;-63
2021/07/21 10:59:20;;;;;;;15.98;7.30;;;;;;;23.62;57.39;100670.47;5032858;28;20394;-63
2021/07/21 11:02:19;;;;;;;13.73;6.93;;;;;;;23.55;57.61;100668.25;5037131;28;20107;-64
2021/07/21 11:04:47;;;;;;;;;;;;;;;23.48;58.11;100681.50;5041171;28;20098;-63
2021/07/21 11:07:16;;;;;;;17.17;10.95;;;;;;;23.52;57.67;100690.97;5033333;28;19967;-64
2021/07/21 11:09:48;;;;;;;14.20;9.30;;;;;;;23.57;57.58;100674.44;5037831;28;20087;-63
2021/07/21 11:12:31;;;;;;;13.93;8.00;;;;;;;23.64;57.91;100679.50;5046712;28;20044;-67
2021/07/21 11:14:58;;;;;;;12.88;6.97;;;;;;;23.82;57.81;100694.25;5036022;28;20077;-64
2021/07/21 11:17:25;;;;;;;11.50;7.10;;;;;;;23.86;57.05;100680.91;5041354;28;20076;-64
2021/07/21 11:19:52;;;;;;;12.60;6.90;;;;;;;23.74;57.32;100667.59;5046105;28;20088;-64
2021/07/21 11:22:19;;;;;;;12.30;7.07;;;;;;;23.83;57.28;100685.34;5048788;28;20544;-65
2021/07/21 11:25:14;;;;;;;13.55;6.68;;;;;;;23.73;57.36;100680.19;5040759;28;20156;-64
2021/07/21 11:27:45;;;;;;;15.18;7.00;;;;;;;23.80;57.44;100682.41;5042391;28;20041;-64
2021/07/21 11:30:31;;;;;;;9.88;6.03;;;;;;;23.82;57.76;100680.00;5038804;28;20045;-63
2021/07/21 11:32:58;;;;;;;13.70;7.57;;;;;;;23.89;57.43;100686.72;5045565;28;20132;-63
2021/07/21 11:35:45;;;;;;;13.43;7.07;;;;;;;23.93;57.27;100685.97;5042045;28;20123;-64